Terminal Aerodrome Forecast
Issued by NWS

Home | Current Version | Previous Version | Graphics & Text | Print | Product List | Glossary On
Versions: 1 2 3 4 5 6 7 8 9 10 11 12 13 14 15 16 17 18 19 20 21 22 23 24 25 26 27 28 29 30 31 32 33 34 35 36 37 38 39 40 41 42 43 44 45 46 47 48 49 50
102
FTUS43 KLOT 221120
TAFGYY
TAF
KGYY 221120Z 2212/2312 18014G20KT P6SM SCT060 OVC100
     FM221500 19012G22KT P6SM VCSH SCT020 BKN040
      TEMPO 2218/2222 3SM -SHRA BR BKN008 BKN015
     FM222200 34014G23KT 3SM -RA BR OVC008
     FM230200 35010KT 4SM -RA OVC010
     FM230500 35008KT P6SM VCSH BKN015
     FM230800 35005KT P6SM SCT100 BKN250=

USA.gov is the U.S. government's official web portal to all federal, state and local government web resources and services.